Terminal Aerodrome Forecast
Issued by NWS

Home | Current Version | Previous Version | Text Only | Print | Product List | Glossary On
Versions: 1 2 3 4 5 6 7 8 9 10 11 12 13 14 15 16 17 18 19 20 21 22 23 24 25 26 27
000
FTUS41 KRNK 231750 CCA
TAFBCB
TAF COR
KBCB 231750Z 2318/2418 07006KT P6SM -SHRA OVC012
      TEMPO 2319/2322 3SM -SHRA BR OVC007
     FM232200 07006KT 5SM -SHRA OVC007
      TEMPO 2322/2402 2SM -RA BR OVC003
     FM240400 VRB03KT 3SM BR VCSH OVC008
      TEMPO 2408/2412 1SM BR OVC003
     FM241400 11006KT 4SM BR VCSH OVC008=

USA.gov is the U.S. government's official web portal to all federal, state and local government web resources and services.